createdAt,value
2023-04-07T00:01:20.784Z,8.60
2023-04-07T00:03:52.182Z,6.20
2023-04-07T00:06:20.409Z,7.40
2023-04-07T00:08:48.447Z,6.40
2023-04-07T00:11:16.527Z,5.20
2023-04-07T00:13:46.039Z,6.40
2023-04-07T00:16:14.537Z,7.40
2023-04-07T00:18:42.571Z,7.00
2023-04-07T00:21:10.626Z,7.00
2023-04-07T00:23:39.131Z,9.00
2023-04-07T00:26:07.225Z,10.40
2023-04-07T00:28:35.338Z,7.00
2023-04-07T00:31:04.827Z,9.40
2023-04-07T00:33:32.888Z,9.60
2023-04-07T00:36:00.979Z,9.40
2023-04-07T00:38:29.030Z,9.20
2023-04-07T00:40:59.397Z,10.80
2023-04-07T00:43:27.463Z,7.80
2023-04-07T00:46:06.045Z,11.60
2023-04-07T00:48:34.252Z,8.60
2023-04-07T00:51:02.333Z,7.80
2023-04-07T00:53:30.653Z,7.00
2023-04-07T00:55:58.888Z,7.80
2023-04-07T00:58:27.134Z,9.40
2023-04-07T01:00:58.095Z,6.60
2023-04-07T01:03:30.845Z,10.00
2023-04-07T01:06:01.429Z,10.00
2023-04-07T01:08:34.612Z,9.60
2023-04-07T01:11:07.066Z,9.00
2023-04-07T01:13:37.125Z,10.00
2023-04-07T01:16:08.306Z,9.00
2023-04-07T01:18:38.220Z,9.40
2023-04-07T01:21:08.935Z,10.80
2023-04-07T01:23:53.378Z,6.60
2023-04-07T01:26:22.853Z,8.20
2023-04-07T01:29:06.049Z,8.60
2023-04-07T01:31:35.923Z,9.20
2023-04-07T01:34:03.997Z,9.60
2023-04-07T01:36:33.810Z,6.40
2023-04-07T01:39:01.990Z,10.00
2023-04-07T01:41:30.043Z,10.00
2023-04-07T01:43:58.073Z,7.00
2023-04-07T01:46:28.759Z,9.00
2023-04-07T01:48:58.379Z,9.40
2023-04-07T01:51:28.740Z,9.40
2023-04-07T01:53:57.232Z,7.80
2023-04-07T01:56:32.860Z,9.60
2023-04-07T01:59:00.894Z,2.60
2023-04-07T02:01:29.106Z,6.20
2023-04-07T02:04:09.021Z,7.00
2023-04-07T02:06:40.231Z,10.00
2023-04-07T02:09:11.008Z,6.00
2023-04-07T02:11:39.092Z,7.60
2023-04-07T02:14:07.627Z,7.00
2023-04-07T02:16:36.239Z,6.00
2023-04-07T02:19:05.989Z,6.60
2023-04-07T02:21:35.919Z,7.00
2023-04-07T02:24:09.907Z,6.20
2023-04-07T02:26:37.977Z,6.60
2023-04-07T02:29:06.441Z,7.40
2023-04-07T02:31:34.568Z,8.00
2023-04-07T02:34:02.657Z,4.80
2023-04-07T02:36:32.137Z,6.60
2023-04-07T02:39:02.961Z,6.00
2023-04-07T02:41:31.197Z,7.00
2023-04-07T02:43:59.220Z,5.20
2023-04-07T02:46:27.260Z,2.20
2023-04-07T02:48:55.330Z,4.00
2023-04-07T02:51:23.948Z,3.60
2023-04-07T02:53:53.515Z,4.00
2023-04-07T02:56:21.950Z,6.00
2023-04-07T02:58:49.977Z,6.00
2023-04-07T03:01:18.133Z,6.80
2023-04-07T03:03:47.971Z,3.60
2023-04-07T03:06:16.164Z,4.00
2023-04-07T03:08:44.333Z,6.40
2023-04-07T03:11:15.716Z,6.60
2023-04-07T03:13:43.753Z,7.40
2023-04-07T03:16:11.790Z,5.20
2023-04-07T03:18:40.034Z,3.40
2023-04-07T03:21:08.275Z,5.60
2023-04-07T03:23:36.277Z,6.00
2023-04-07T03:26:04.438Z,3.00
2023-04-07T03:28:33.934Z,6.00
2023-04-07T03:31:02.057Z,3.60
2023-04-07T03:33:30.137Z,6.20
2023-04-07T03:36:03.094Z,3.80
2023-04-07T03:38:31.126Z,4.00
2023-04-07T03:40:59.215Z,6.20
2023-04-07T03:43:27.368Z,5.60
2023-04-07T03:45:56.794Z,3.20
2023-04-07T03:48:24.825Z,4.00
2023-04-07T03:50:52.831Z,5.20
2023-04-07T03:53:21.044Z,4.00
2023-04-07T03:55:52.255Z,6.00
2023-04-07T03:58:20.824Z,2.20
2023-04-07T04:00:50.901Z,3.80
2023-04-07T04:03:23.098Z,4.00
2023-04-07T04:05:51.190Z,4.00
2023-04-07T04:08:19.666Z,4.00
2023-04-07T04:10:50.038Z,2.20
2023-04-07T04:13:18.180Z,3.00
2023-04-07T04:15:46.227Z,3.80
2023-04-07T04:18:15.724Z,4.00
2023-04-07T04:20:45.274Z,4.00
2023-04-07T04:23:13.307Z,4.00
2023-04-07T04:25:41.329Z,4.00
2023-04-07T04:28:09.706Z,3.00
2023-04-07T04:30:37.984Z,2.60
2023-04-07T04:33:06.026Z,1.80
2023-04-07T04:35:34.190Z,5.60
2023-04-07T04:38:04.051Z,3.00
2023-04-07T04:40:32.223Z,4.00
2023-04-07T04:43:00.525Z,3.00
2023-04-07T04:45:28.523Z,1.00
2023-04-07T04:47:57.167Z,3.00
2023-04-07T04:50:25.221Z,3.00
2023-04-07T04:52:53.206Z,3.40
2023-04-07T04:55:22.652Z,1.00
2023-04-07T04:57:53.898Z,3.00
2023-04-07T05:00:22.607Z,1.40
2023-04-07T05:02:50.911Z,1.00
2023-04-07T05:05:21.890Z,3.00
2023-04-07T05:07:50.065Z,3.00
2023-04-07T05:10:19.331Z,1.00
2023-04-07T05:12:48.873Z,1.00
2023-04-07T05:15:17.264Z,1.00
2023-04-07T05:17:50.435Z,3.40
2023-04-07T05:20:18.822Z,3.00
2023-04-07T05:22:47.001Z,3.00
2023-04-07T05:25:15.022Z,1.00
2023-04-07T05:27:43.345Z,3.00
2023-04-07T05:30:16.409Z,1.40
2023-04-07T05:32:44.471Z,3.60
2023-04-07T05:35:12.554Z,3.20
2023-04-07T05:37:40.764Z,2.20
2023-04-07T05:40:10.121Z,3.00
2023-04-07T05:42:38.069Z,0.60
2023-04-07T05:45:06.897Z,3.00
2023-04-07T05:47:36.325Z,3.20
2023-04-07T05:50:04.506Z,2.60
2023-04-07T05:52:32.688Z,3.60
2023-04-07T05:55:07.391Z,1.00
2023-04-07T05:57:38.591Z,1.00
2023-04-07T06:00:07.745Z,3.00
2023-04-07T06:02:37.390Z,3.00
2023-04-07T06:05:09.037Z,1.40
2023-04-07T06:07:37.033Z,2.60
2023-04-07T06:10:06.237Z,3.00
2023-04-07T06:12:34.356Z,3.60
2023-04-07T06:15:05.387Z,1.40
2023-04-07T06:17:33.437Z,0.00
2023-04-07T06:20:02.978Z,0.00
2023-04-07T06:22:30.972Z,0.80
2023-04-07T06:24:58.963Z,0.00
2023-04-07T06:27:27.473Z,1.00
2023-04-07T06:29:55.411Z,2.20
2023-04-07T06:32:23.815Z,2.60
2023-04-07T06:34:52.233Z,3.00
2023-04-07T06:37:21.724Z,3.80
2023-04-07T06:39:50.480Z,3.00
2023-04-07T06:42:18.428Z,1.40
2023-04-07T06:44:46.431Z,3.00
2023-04-07T06:47:14.456Z,1.80
2023-04-07T06:49:42.457Z,3.40
2023-04-07T06:52:10.492Z,3.40
2023-04-07T06:54:39.919Z,3.00
2023-04-07T06:57:11.983Z,0.00
2023-04-07T06:59:39.970Z,3.00
2023-04-07T07:02:09.058Z,3.00
2023-04-07T07:04:40.285Z,1.00
2023-04-07T07:07:08.330Z,3.00
2023-04-07T07:09:36.352Z,3.00
2023-04-07T07:12:07.585Z,3.20
2023-04-07T07:14:36.177Z,2.60
2023-04-07T07:17:07.088Z,1.00
2023-04-07T07:19:35.611Z,2.20
2023-04-07T07:22:04.482Z,1.00
2023-04-07T07:24:34.118Z,2.60
2023-04-07T07:27:03.562Z,3.40
2023-04-07T07:29:33.198Z,3.40
2023-04-07T07:32:01.374Z,3.00
2023-04-07T07:34:29.491Z,3.00
2023-04-07T07:36:57.899Z,3.00
2023-04-07T07:39:26.006Z,3.60
2023-04-07T07:41:54.086Z,3.00
2023-04-07T07:44:22.890Z,1.00
2023-04-07T07:46:52.438Z,4.00
2023-04-07T07:49:21.533Z,4.00
2023-04-07T07:51:49.764Z,3.80
2023-04-07T07:54:17.961Z,3.00
2023-04-07T07:56:45.959Z,3.00
2023-04-07T07:59:14.880Z,1.80
2023-04-07T08:01:44.163Z,1.00
2023-04-07T08:04:13.716Z,3.00
2023-04-07T08:06:42.124Z,3.00
2023-04-07T08:09:10.131Z,3.00
2023-04-07T08:11:41.033Z,1.80
2023-04-07T08:14:09.969Z,4.00
2023-04-07T08:16:38.316Z,1.00
2023-04-07T08:19:06.444Z,3.00
2023-04-07T08:21:35.863Z,4.00
2023-04-07T08:24:04.742Z,3.60
2023-04-07T08:26:32.854Z,3.60
2023-04-07T08:29:00.879Z,3.00
2023-04-07T08:31:28.965Z,4.00
2023-04-07T08:33:58.284Z,4.00
2023-04-07T08:36:27.586Z,2.60
2023-04-07T08:38:58.810Z,1.40
2023-04-07T08:41:30.525Z,3.20
2023-04-07T08:43:58.835Z,3.00
2023-04-07T08:46:27.364Z,3.60
2023-04-07T08:48:55.420Z,4.80
2023-04-07T08:51:27.398Z,3.00
2023-04-07T08:53:58.192Z,3.00
2023-04-07T08:56:27.557Z,3.00
2023-04-07T08:58:55.641Z,3.00
2023-04-07T09:01:23.864Z,1.00
2023-04-07T09:03:52.194Z,4.00
2023-04-07T09:06:23.984Z,4.00
2023-04-07T09:08:52.557Z,3.00
2023-04-07T09:11:20.767Z,0.00
2023-04-07T09:13:50.780Z,3.60
2023-04-07T09:16:19.361Z,3.00
2023-04-07T09:18:47.836Z,2.20
2023-04-07T09:21:17.487Z,2.20
2023-04-07T09:23:45.758Z,3.00
2023-04-07T09:26:21.212Z,2.60
2023-04-07T09:28:51.951Z,3.00
2023-04-07T09:31:21.307Z,1.00
2023-04-07T09:33:50.239Z,2.60
2023-04-07T09:36:19.711Z,3.00
2023-04-07T09:38:48.937Z,2.60
2023-04-07T09:41:17.916Z,2.20
2023-04-07T09:43:47.100Z,3.20
2023-04-07T09:46:18.077Z,3.40
2023-04-07T09:48:48.741Z,2.60
2023-04-07T09:51:17.957Z,3.00
2023-04-07T09:53:48.009Z,3.60
2023-04-07T09:56:17.466Z,3.00
2023-04-07T09:58:46.530Z,4.20
2023-04-07T10:01:16.922Z,3.00
2023-04-07T10:03:46.808Z,3.00
2023-04-07T10:06:15.217Z,2.60
2023-04-07T10:08:43.819Z,3.40
2023-04-07T10:11:11.898Z,1.40
2023-04-07T10:13:41.298Z,0.00
2023-04-07T10:16:09.660Z,1.40
2023-04-07T10:18:39.272Z,3.40
2023-04-07T10:21:09.487Z,1.00
2023-04-07T10:23:45.055Z,3.00
2023-04-07T10:26:14.308Z,1.00
2023-04-07T10:28:42.533Z,3.60
2023-04-07T10:31:10.773Z,2.20
2023-04-07T10:33:51.796Z,0.80
2023-04-07T10:36:20.869Z,1.60
2023-04-07T10:39:23.638Z,1.60
2023-04-07T10:41:53.445Z,1.00
2023-04-07T10:44:46.896Z,3.00
2023-04-07T10:47:15.091Z,3.00
2023-04-07T10:50:02.985Z,1.80
2023-04-07T10:52:31.154Z,1.00
2023-04-07T10:55:31.679Z,2.60
2023-04-07T10:58:19.060Z,2.60
2023-04-07T11:01:16.802Z,1.00
2023-04-07T11:03:54.726Z,1.80
2023-04-07T11:06:24.309Z,1.00
2023-04-07T11:08:52.358Z,1.40
2023-04-07T11:11:23.438Z,1.00
2023-04-07T11:13:52.138Z,1.00
2023-04-07T11:16:21.364Z,3.00
2023-04-07T11:18:49.872Z,1.40
2023-04-07T11:21:19.209Z,0.00
2023-04-07T11:23:49.388Z,3.20
2023-04-07T11:26:17.665Z,3.40
2023-04-07T11:28:47.249Z,0.60
2023-04-07T11:31:23.040Z,1.00
2023-04-07T11:33:53.891Z,1.00
2023-04-07T11:36:28.958Z,4.20
2023-04-07T11:38:58.756Z,16.40
2023-04-07T11:41:27.726Z,24.40
2023-04-07T11:44:06.787Z,19.60
2023-04-07T11:46:35.192Z,12.40
2023-04-07T11:49:13.358Z,6.80
2023-04-07T11:51:42.221Z,8.20
2023-04-07T11:54:11.834Z,19.80
2023-04-07T11:56:44.220Z,12.80
2023-04-07T11:59:23.261Z,13.60
2023-04-07T12:01:52.120Z,14.40
2023-04-07T12:04:21.221Z,16.60
2023-04-07T12:06:49.960Z,18.60
2023-04-07T12:09:29.796Z,12.00
2023-04-07T12:11:58.422Z,12.60
2023-04-07T12:14:27.857Z,7.80
2023-04-07T12:16:58.196Z,5.00
2023-04-07T12:19:27.268Z,3.60
2023-04-07T12:21:57.721Z,5.20
2023-04-07T12:24:25.784Z,6.00
2023-04-07T12:26:55.484Z,13.60
2023-04-07T12:29:24.192Z,3.00
2023-04-07T12:31:52.152Z,15.60
2023-04-07T12:34:20.215Z,8.80
2023-04-07T12:36:51.702Z,5.60
2023-04-07T12:39:20.916Z,15.60
2023-04-07T12:41:53.420Z,7.60
2023-04-07T12:44:22.942Z,16.00
2023-04-07T12:46:50.991Z,12.60
2023-04-07T12:49:19.038Z,8.80
2023-04-07T12:51:47.022Z,4.00
2023-04-07T12:54:15.121Z,11.00
2023-04-07T12:56:43.140Z,7.00
2023-04-07T12:59:11.119Z,9.40
2023-04-07T13:01:41.157Z,13.80
2023-04-07T13:04:09.297Z,29.20
2023-04-07T13:06:37.356Z,12.80
2023-04-07T13:09:05.786Z,15.20
2023-04-07T13:11:33.873Z,15.40
2023-04-07T13:14:02.009Z,17.80
2023-04-07T13:16:30.061Z,18.20
2023-04-07T13:18:59.427Z,20.40
2023-04-07T13:21:45.441Z,27.20
2023-04-07T13:24:14.877Z,27.20
2023-04-07T13:26:42.892Z,30.20
2023-04-07T13:29:10.914Z,28.20
2023-04-07T13:31:39.413Z,22.40
2023-04-07T13:34:08.814Z,29.80
2023-04-07T13:36:37.008Z,9.40
2023-04-07T13:39:05.200Z,15.00
2023-04-07T13:41:33.286Z,14.00
2023-04-07T13:44:04.705Z,19.00
2023-04-07T13:46:33.180Z,16.80
2023-04-07T13:49:01.360Z,10.20
2023-04-07T13:51:30.757Z,7.40
2023-04-07T13:53:58.723Z,6.20
2023-04-07T13:56:26.819Z,6.60
2023-04-07T13:58:54.780Z,3.60
2023-04-07T14:01:22.815Z,6.00
2023-04-07T14:03:50.980Z,1.00
2023-04-07T14:06:22.953Z,4.40
2023-04-07T14:08:52.414Z,3.00
2023-04-07T14:11:20.460Z,3.40
2023-04-07T14:13:49.044Z,3.00
2023-04-07T14:16:17.639Z,3.00
2023-04-07T14:18:46.912Z,2.60
2023-04-07T14:21:15.297Z,3.00
2023-04-07T14:23:43.429Z,1.80
2023-04-07T14:26:13.209Z,9.00
2023-04-07T14:28:41.616Z,10.80
2023-04-07T14:31:14.260Z,13.40
2023-04-07T14:33:42.378Z,15.80
2023-04-07T14:36:10.380Z,19.40
2023-04-07T14:38:38.415Z,15.40
2023-04-07T14:41:10.030Z,14.20
2023-04-07T14:43:40.218Z,15.20
2023-04-07T14:46:08.380Z,36.20
2023-04-07T14:48:36.688Z,42.20
2023-04-07T14:51:09.871Z,47.40
2023-04-07T14:53:38.190Z,52.75
2023-04-07T14:56:06.317Z,35.50
2023-04-07T14:58:37.399Z,33.75
2023-04-07T15:01:07.163Z,28.00
2023-04-07T15:03:35.747Z,14.40
2023-04-07T15:06:07.939Z,13.40
2023-04-07T15:08:36.449Z,10.00
2023-04-07T15:11:07.760Z,0.40
2023-04-07T15:13:39.088Z,1.00
2023-04-07T15:16:12.688Z,0.20
2023-04-07T15:18:42.179Z,0.00
2023-04-07T15:21:10.394Z,0.20
2023-04-07T15:23:38.958Z,0.20
2023-04-07T15:26:07.481Z,1.00
2023-04-07T15:28:35.805Z,1.00
2023-04-07T15:31:14.809Z,1.00
2023-04-07T15:33:44.236Z,1.00
2023-04-07T15:36:12.458Z,4.60
2023-04-07T15:38:40.715Z,12.00
2023-04-07T15:41:08.729Z,10.80
2023-04-07T15:43:37.580Z,13.40
2023-04-07T15:46:05.753Z,15.40
2023-04-07T15:48:35.104Z,18.80
2023-04-07T15:51:03.190Z,29.75
2023-04-07T15:53:31.283Z,30.25
2023-04-07T15:55:59.356Z,26.80
2023-04-07T15:58:27.351Z,35.50
2023-04-07T16:00:55.853Z,32.50
2023-04-07T16:03:24.512Z,26.40
2023-04-07T16:05:54.060Z,35.40
2023-04-07T16:08:23.506Z,43.25
2023-04-07T16:10:51.582Z,34.75
2023-04-07T16:13:20.050Z,28.00
2023-04-07T16:15:50.036Z,29.60
2023-04-07T16:18:18.138Z,30.25
2023-04-07T16:20:46.282Z,37.25
2023-04-07T16:23:16.080Z,17.20
2023-04-07T16:25:44.198Z,33.75
2023-04-07T16:28:12.236Z,36.00
2023-04-07T16:30:40.461Z,24.60
2023-04-07T16:33:08.926Z,32.00
2023-04-07T16:35:36.981Z,46.25
2023-04-07T16:38:06.143Z,62.00
2023-04-07T16:40:36.050Z,42.00
2023-04-07T16:43:04.312Z,61.50
2023-04-07T16:45:32.440Z,41.80
2023-04-07T16:48:00.992Z,55.25
2023-04-07T16:50:29.111Z,67.75
2023-04-07T16:52:57.753Z,41.20
2023-04-07T16:55:25.761Z,38.40
2023-04-07T16:57:55.667Z,65.50
2023-04-07T17:00:23.739Z,47.60
2023-04-07T17:02:55.072Z,62.00
2023-04-07T17:05:24.105Z,42.80
2023-04-07T17:07:52.659Z,36.00
2023-04-07T17:10:20.703Z,44.25
2023-04-07T17:12:53.155Z,48.00
2023-04-07T17:15:23.253Z,45.75
2023-04-07T17:17:51.507Z,46.50
2023-04-07T17:20:22.769Z,30.00
2023-04-07T17:22:51.303Z,33.20
2023-04-07T17:25:19.527Z,48.25
2023-04-07T17:27:48.147Z,59.25
2023-04-07T17:30:16.318Z,66.50
2023-04-07T17:32:46.168Z,41.20
2023-04-07T17:35:14.170Z,59.75
2023-04-07T17:37:42.459Z,60.25
2023-04-07T17:40:11.501Z,34.00
2023-04-07T17:42:39.977Z,47.00
2023-04-07T17:45:10.856Z,34.80
2023-04-07T17:47:39.056Z,45.50
2023-04-07T17:50:09.775Z,49.75
2023-04-07T17:52:37.800Z,47.75
2023-04-07T17:55:06.968Z,54.75
2023-04-07T17:57:36.273Z,41.60
2023-04-07T18:00:09.185Z,53.50
2023-04-07T18:02:40.270Z,63.00
2023-04-07T18:05:10.966Z,42.00
2023-04-07T18:07:38.987Z,58.50
2023-04-07T18:10:09.536Z,47.60
2023-04-07T18:12:37.546Z,36.20
2023-04-07T18:15:06.194Z,58.50
2023-04-07T18:17:34.537Z,34.20
2023-04-07T18:20:04.840Z,33.00
2023-04-07T18:22:34.656Z,34.00
2023-04-07T18:25:02.856Z,30.20
2023-04-07T18:27:30.831Z,31.00
2023-04-07T18:29:59.326Z,53.75
2023-04-07T18:32:27.388Z,47.00
2023-04-07T18:34:55.398Z,41.20
2023-04-07T18:37:23.424Z,34.40
2023-04-07T18:39:53.866Z,52.25
2023-04-07T18:42:21.849Z,43.00
2023-04-07T18:44:49.880Z,51.50
2023-04-07T18:47:18.178Z,36.40
2023-04-07T18:49:46.245Z,47.25
2023-04-07T18:52:14.614Z,32.60
2023-04-07T18:54:42.627Z,50.25
2023-04-07T18:57:15.257Z,41.60
2023-04-07T18:59:43.725Z,47.50
2023-04-07T19:02:11.848Z,26.80
2023-04-07T19:04:40.872Z,26.80
2023-04-07T19:07:08.948Z,26.20
2023-04-07T19:09:37.905Z,14.60
2023-04-07T19:12:06.594Z,9.60
2023-04-07T19:14:36.069Z,12.00
2023-04-07T19:17:04.127Z,7.00
2023-04-07T19:19:32.681Z,8.00
2023-04-07T19:22:14.756Z,6.80
2023-04-07T19:24:42.689Z,9.00
2023-04-07T19:27:12.091Z,7.40
2023-04-07T19:29:45.736Z,9.20
2023-04-07T19:32:14.562Z,6.00
2023-04-07T19:34:42.719Z,6.80
2023-04-07T19:37:11.138Z,6.80
2023-04-07T19:39:40.204Z,9.00
2023-04-07T19:42:08.878Z,6.80
2023-04-07T19:44:37.646Z,11.20
2023-04-07T19:47:07.158Z,9.00
2023-04-07T19:49:39.633Z,0.80
2023-04-07T19:52:11.577Z,6.80
2023-04-07T19:54:56.766Z,6.00
2023-04-07T19:57:49.926Z,7.00
2023-04-07T20:00:58.565Z,9.00
2023-04-07T20:03:28.461Z,7.00
2023-04-07T20:06:21.459Z,6.40
2023-04-07T20:09:22.629Z,7.40
2023-04-07T20:11:51.103Z,6.60
2023-04-07T20:14:36.303Z,7.00
2023-04-07T20:17:13.214Z,5.60
2023-04-07T20:20:04.587Z,6.00
2023-04-07T20:22:36.155Z,6.00
2023-04-07T20:25:05.572Z,6.00
2023-04-07T20:27:33.653Z,6.00
2023-04-07T20:30:22.381Z,6.00
2023-04-07T20:32:56.276Z,1.80
2023-04-07T20:35:49.764Z,4.80
2023-04-07T20:38:51.504Z,3.00
2023-04-07T20:41:27.678Z,6.80
2023-04-07T20:44:12.846Z,7.00
2023-04-07T20:46:56.290Z,6.60
2023-04-07T20:49:28.598Z,4.00
2023-04-07T20:52:22.536Z,6.80
2023-04-07T20:54:50.566Z,6.60
2023-04-07T20:57:19.202Z,6.20
2023-04-07T20:59:47.161Z,6.20
2023-04-07T21:02:27.479Z,7.00
2023-04-07T21:04:55.538Z,8.60
2023-04-07T21:07:24.968Z,6.60
2023-04-07T21:09:53.540Z,8.60
2023-04-07T21:12:21.689Z,6.00
2023-04-07T21:14:49.753Z,6.00
2023-04-07T21:17:20.524Z,6.80
2023-04-07T21:19:53.166Z,3.40
2023-04-07T21:22:21.225Z,7.00
2023-04-07T21:24:50.631Z,7.40
2023-04-07T21:27:19.067Z,9.00
2023-04-07T21:29:47.097Z,7.80
2023-04-07T21:32:15.471Z,7.00
2023-04-07T21:34:43.887Z,10.00
2023-04-07T21:37:11.845Z,8.60
2023-04-07T21:39:39.914Z,7.00
2023-04-07T21:42:09.228Z,8.60
2023-04-07T21:44:37.446Z,6.00
2023-04-07T21:47:05.420Z,8.60
2023-04-07T21:49:33.528Z,6.80
2023-04-07T21:52:01.541Z,8.60
2023-04-07T21:54:29.643Z,6.00
2023-04-07T21:56:57.921Z,8.60
2023-04-07T21:59:27.371Z,7.00
2023-04-07T22:01:56.465Z,6.00
2023-04-07T22:04:25.002Z,7.80
2023-04-07T22:06:53.072Z,7.00
2023-04-07T22:09:21.025Z,6.40
2023-04-07T22:11:49.096Z,11.60
2023-04-07T22:14:17.142Z,10.00
2023-04-07T22:16:46.608Z,7.20
2023-04-07T22:19:16.732Z,4.00
2023-04-07T22:21:44.736Z,8.60
2023-04-07T22:24:12.747Z,8.20
2023-04-07T22:26:41.267Z,4.00
2023-04-07T22:29:09.672Z,9.60
2023-04-07T22:31:37.788Z,9.80
2023-04-07T22:34:08.372Z,9.20
2023-04-07T22:36:36.631Z,6.80
2023-04-07T22:39:04.853Z,8.80
2023-04-07T22:41:32.902Z,7.00
2023-04-07T22:44:00.886Z,5.20
2023-04-07T22:46:28.874Z,11.40
2023-04-07T22:48:56.854Z,5.60
2023-04-07T22:51:27.210Z,10.40
2023-04-07T22:53:55.567Z,8.60
2023-04-07T22:56:24.290Z,7.80
2023-04-07T22:58:52.428Z,10.00
2023-04-07T23:01:20.558Z,7.00
2023-04-07T23:03:48.733Z,7.40
2023-04-07T23:06:16.815Z,10.40
2023-04-07T23:08:46.165Z,9.00
2023-04-07T23:11:15.753Z,3.40
2023-04-07T23:13:43.902Z,2.20
2023-04-07T23:16:12.742Z,9.00
2023-04-07T23:18:40.978Z,7.80
2023-04-07T23:21:09.252Z,6.40
2023-04-07T23:23:39.091Z,6.80
2023-04-07T23:26:08.574Z,14.40
2023-04-07T23:28:37.057Z,6.00
2023-04-07T23:31:06.834Z,10.00
2023-04-07T23:33:34.829Z,12.00
2023-04-07T23:36:02.891Z,9.40
2023-04-07T23:38:30.916Z,10.80
2023-04-07T23:40:58.866Z,3.00
2023-04-07T23:43:28.242Z,12.20
2023-04-07T23:45:56.640Z,9.20
2023-04-07T23:48:26.268Z,7.40
2023-04-07T23:50:54.269Z,6.00
2023-04-07T23:53:24.755Z,9.80
2023-04-07T23:55:52.884Z,10.40
2023-04-07T23:58:21.117Z,9.60
